createdAt,value
2023-03-04T00:02:33.807Z,-0.40
2023-03-04T00:06:39.604Z,-0.50
2023-03-04T00:10:43.147Z,-0.50
2023-03-04T00:14:48.148Z,-0.50
2023-03-04T00:18:51.738Z,-0.50
2023-03-04T00:22:55.685Z,-0.50
2023-03-04T00:27:00.605Z,-0.50
2023-03-04T00:31:05.879Z,-0.60
2023-03-04T00:35:10.183Z,-0.60
2023-03-04T00:39:15.299Z,-0.60
2023-03-04T00:43:18.938Z,-0.60
2023-03-04T00:47:24.046Z,-0.70
2023-03-04T00:51:52.192Z,-0.70
2023-03-04T01:01:43.809Z,-0.80
2023-03-04T01:05:48.918Z,-0.80
2023-03-04T01:09:57.479Z,-0.80
2023-03-04T01:14:01.484Z,-0.80
2023-03-04T01:18:31.279Z,-0.90
2023-03-04T01:22:36.652Z,-1.00
2023-03-04T01:26:42.646Z,-0.90
2023-03-04T01:30:46.135Z,-1.00
2023-03-04T01:35:07.105Z,-1.00
2023-03-04T01:39:11.961Z,-1.10
2023-03-04T01:43:32.621Z,-1.10
2023-03-04T01:47:37.042Z,-1.30
2023-03-04T01:51:40.813Z,-1.30
2023-03-04T01:55:46.036Z,-1.30
2023-03-04T02:00:17.917Z,-1.40
2023-03-04T02:04:24.839Z,-1.50
2023-03-04T02:08:31.578Z,-1.40
2023-03-04T02:12:37.319Z,-1.40
2023-03-04T02:16:41.704Z,-1.50
2023-03-04T02:21:06.888Z,-1.60
2023-03-04T02:25:16.095Z,-1.60
2023-03-04T02:29:21.326Z,-1.60
2023-03-04T02:33:24.938Z,-1.70
2023-03-04T02:37:28.694Z,-1.60
2023-03-04T02:41:32.930Z,-1.50
2023-03-04T02:45:46.412Z,-1.50
2023-03-04T02:49:50.797Z,-1.30
2023-03-04T02:53:54.362Z,-1.20
2023-03-04T02:58:21.267Z,-1.10
2023-03-04T03:02:26.227Z,-1.00
2023-03-04T03:06:29.950Z,-0.90
2023-03-04T03:11:29.037Z,-0.90
2023-03-04T03:15:32.962Z,-0.90
2023-03-04T03:19:38.132Z,-0.80
2023-03-04T03:23:51.590Z,-0.80
2023-03-04T03:27:55.253Z,-0.80
2023-03-04T03:31:59.366Z,-0.80
2023-03-04T03:36:10.410Z,-0.90
2023-03-04T03:40:15.569Z,-0.80
2023-03-04T03:44:23.638Z,-0.70
2023-03-04T03:48:27.263Z,-0.70
2023-03-04T03:52:32.374Z,-0.60
2023-03-04T03:56:41.865Z,-0.50
2023-03-04T04:00:45.506Z,-0.40
2023-03-04T04:04:50.749Z,-0.40
2023-03-04T04:08:55.792Z,-0.40
2023-03-04T04:12:59.530Z,-0.40
2023-03-04T04:17:03.101Z,-0.40
2023-03-04T04:21:07.308Z,-0.40
2023-03-04T04:25:16.329Z,-0.30
2023-03-04T04:29:19.992Z,-0.20
2023-03-04T04:33:25.629Z,-0.20
2023-03-04T04:37:29.193Z,-0.20
2023-03-04T04:41:40.380Z,-0.20
2023-03-04T04:45:44.091Z,-0.20
2023-03-04T04:49:52.663Z,-0.10
2023-03-04T04:53:56.360Z,0.00
2023-03-04T04:58:01.457Z,0.00
2023-03-04T05:02:16.262Z,0.00
2023-03-04T05:06:19.774Z,0.00
2023-03-04T05:10:23.388Z,0.10
2023-03-04T05:14:29.680Z,0.30
2023-03-04T05:18:35.081Z,0.30
2023-03-04T05:22:38.737Z,0.40
2023-03-04T05:26:42.380Z,0.40
2023-03-04T05:31:36.970Z,0.40
2023-03-04T05:35:43.369Z,0.50
2023-03-04T05:39:47.152Z,0.50
2023-03-04T05:43:57.320Z,0.70
2023-03-04T05:48:02.557Z,0.70
2023-03-04T05:52:07.630Z,0.80
2023-03-04T05:56:41.628Z,0.90
2023-03-04T06:00:45.466Z,1.00
2023-03-04T06:04:49.084Z,1.10
2023-03-04T06:09:29.769Z,1.40
2023-03-04T06:13:35.501Z,1.50
2023-03-04T06:17:42.022Z,1.60
2023-03-04T06:21:49.816Z,1.80
2023-03-04T06:25:54.953Z,1.90
2023-03-04T06:30:29.942Z,2.10
2023-03-04T06:34:34.042Z,2.30
2023-03-04T06:39:36.036Z,2.40
2023-03-04T06:43:40.315Z,2.50
2023-03-04T06:47:45.958Z,2.60
2023-03-04T06:51:50.576Z,2.70
2023-03-04T06:55:54.106Z,2.80
2023-03-04T07:00:19.827Z,2.90
2023-03-04T07:04:25.109Z,2.90
2023-03-04T07:08:31.666Z,3.00
2023-03-04T07:13:01.509Z,3.00
2023-03-04T07:17:28.639Z,3.10
2023-03-04T07:21:33.731Z,3.10
2023-03-04T07:25:37.464Z,3.20
2023-03-04T07:30:30.960Z,3.30
2023-03-04T07:34:34.827Z,3.40
2023-03-04T07:38:40.005Z,3.40
2023-03-04T07:42:44.570Z,3.60
2023-03-04T07:46:55.090Z,3.60
2023-03-04T07:51:07.622Z,3.70
2023-03-04T07:56:14.516Z,3.80
2023-03-04T08:00:21.163Z,3.90
2023-03-04T08:05:15.926Z,3.90
2023-03-04T08:09:19.761Z,4.10
2023-03-04T08:13:25.784Z,4.00
2023-03-04T08:17:31.518Z,4.10
2023-03-04T08:21:35.644Z,4.20
2023-03-04T08:25:41.954Z,4.30
2023-03-04T08:29:45.722Z,4.40
2023-03-04T08:33:51.445Z,4.50
2023-03-04T08:37:55.331Z,4.70
2023-03-04T08:41:59.056Z,4.80
2023-03-04T08:46:03.289Z,4.90
2023-03-04T08:50:38.775Z,5.10
2023-03-04T08:54:42.467Z,5.20
2023-03-04T08:58:46.614Z,5.30
2023-03-04T09:02:50.344Z,5.40
2023-03-04T09:06:55.609Z,5.50
2023-03-04T09:11:28.422Z,5.60
2023-03-04T09:15:32.110Z,5.70
2023-03-04T09:19:35.963Z,5.70
2023-03-04T09:23:50.738Z,5.70
2023-03-04T09:27:56.781Z,5.70
2023-03-04T09:32:02.063Z,5.90
2023-03-04T09:36:11.627Z,5.90
2023-03-04T09:40:29.345Z,5.80
2023-03-04T09:44:37.071Z,5.80
2023-03-04T09:48:57.262Z,5.70
2023-03-04T09:53:17.804Z,5.90
2023-03-04T09:57:30.986Z,5.90
2023-03-04T10:01:55.317Z,6.00
2023-03-04T10:06:02.580Z,6.20
2023-03-04T10:15:04.762Z,6.50
2023-03-04T10:20:11.489Z,6.60
2023-03-04T10:24:18.453Z,6.60
2023-03-04T10:28:25.954Z,6.80
2023-03-04T10:32:39.556Z,6.90
2023-03-04T10:37:05.875Z,7.10
2023-03-04T10:41:15.729Z,7.20
2023-03-04T10:50:36.338Z,7.30
2023-03-04T10:55:05.220Z,7.30
2023-03-04T10:59:44.523Z,7.60
2023-03-04T11:03:51.465Z,7.70
2023-03-04T11:08:00.372Z,7.70
2023-03-04T11:12:22.457Z,7.80
2023-03-04T11:16:28.806Z,7.90
2023-03-04T11:20:34.896Z,8.00
2023-03-04T11:24:40.404Z,7.90
2023-03-04T11:28:56.005Z,8.00
2023-03-04T11:33:20.753Z,8.00
2023-03-04T11:37:36.153Z,8.00
2023-03-04T11:42:00.302Z,7.90
2023-03-04T11:46:50.989Z,7.90
2023-03-04T11:51:25.552Z,7.90
2023-03-04T11:55:46.830Z,7.90
2023-03-04T12:00:14.001Z,7.90
2023-03-04T12:04:55.318Z,7.90
2023-03-04T12:09:35.320Z,7.90
2023-03-04T12:14:03.658Z,8.10
2023-03-04T12:18:25.515Z,7.90
2023-03-04T12:27:31.347Z,8.20
2023-03-04T12:31:39.263Z,8.20
2023-03-04T12:35:59.395Z,8.20
2023-03-04T12:40:34.226Z,8.20
2023-03-04T12:45:00.478Z,8.20
2023-03-04T12:49:24.072Z,8.30
2023-03-04T12:53:36.394Z,8.30
2023-03-04T12:57:40.749Z,8.30
2023-03-04T13:02:03.280Z,8.30
2023-03-04T13:06:24.156Z,8.40
2023-03-04T13:10:29.855Z,8.50
2023-03-04T13:15:17.978Z,8.60
2023-03-04T13:19:48.435Z,8.50
2023-03-04T13:23:54.397Z,8.50
2023-03-04T13:28:19.994Z,8.50
2023-03-04T13:32:38.780Z,8.50
2023-03-04T13:37:28.132Z,8.50
2023-03-04T13:41:36.185Z,8.50
2023-03-04T13:45:41.722Z,8.50
2023-03-04T13:50:47.144Z,8.60
2023-03-04T13:54:51.148Z,8.80
2023-03-04T13:59:28.708Z,8.80
2023-03-04T14:03:36.520Z,8.70
2023-03-04T14:07:40.276Z,8.50
2023-03-04T14:11:50.242Z,8.00
2023-03-04T14:15:58.209Z,7.80
2023-03-04T14:20:25.800Z,7.90
2023-03-04T14:24:31.828Z,7.70
2023-03-04T14:28:47.898Z,7.70
2023-03-04T14:32:53.746Z,7.70
2023-03-04T14:36:59.164Z,7.50
2023-03-04T14:41:29.317Z,7.40
2023-03-04T14:45:37.007Z,7.00
2023-03-04T14:49:41.221Z,6.80
2023-03-04T14:54:51.774Z,7.10
2023-03-04T14:58:58.630Z,7.00
2023-03-04T15:03:05.082Z,6.70
2023-03-04T15:07:16.264Z,6.30
2023-03-04T15:11:26.375Z,6.20
2023-03-04T15:16:03.196Z,6.10
2023-03-04T15:20:26.177Z,5.70
2023-03-04T15:24:29.865Z,5.60
2023-03-04T15:29:29.865Z,5.70
2023-03-04T15:33:35.597Z,5.40
2023-03-04T15:37:39.370Z,5.20
2023-03-04T15:42:24.962Z,5.20
2023-03-04T15:46:28.802Z,5.00
2023-03-04T15:50:39.226Z,4.60
2023-03-04T15:54:43.022Z,4.50
2023-03-04T15:58:50.047Z,4.40
2023-03-04T16:02:53.783Z,4.40
2023-03-04T16:07:01.899Z,4.30
2023-03-04T16:11:06.141Z,3.70
2023-03-04T16:15:15.718Z,3.30
2023-03-04T16:19:20.719Z,3.20
2023-03-04T16:23:26.588Z,3.00
2023-03-04T16:27:30.422Z,2.80
2023-03-04T16:31:40.147Z,2.60
2023-03-04T16:35:45.504Z,2.10
2023-03-04T16:39:50.964Z,2.00
2023-03-04T16:43:56.738Z,1.90
2023-03-04T16:48:00.865Z,1.70
2023-03-04T16:52:53.780Z,1.20
2023-03-04T16:56:59.346Z,0.90
2023-03-04T17:01:03.459Z,0.90
2023-03-04T17:05:10.189Z,0.90
2023-03-04T17:09:16.282Z,0.80
2023-03-04T17:13:21.429Z,0.60
2023-03-04T17:17:25.400Z,0.40
2023-03-04T17:21:29.071Z,0.10
2023-03-04T17:25:32.709Z,0.20
2023-03-04T17:29:39.075Z,0.20
2023-03-04T17:33:44.036Z,0.20
2023-03-04T17:37:47.602Z,0.30
2023-03-04T17:41:53.381Z,0.20
2023-03-04T17:46:25.621Z,0.30
2023-03-04T17:50:54.503Z,0.30
2023-03-04T17:55:08.690Z,0.40
2023-03-04T17:59:15.682Z,0.30
2023-03-04T18:03:21.197Z,0.40
2023-03-04T18:08:28.009Z,0.40
2023-03-04T18:12:33.164Z,0.30
2023-03-04T18:16:37.185Z,0.10
2023-03-04T18:20:44.802Z,0.00
2023-03-04T18:24:48.593Z,0.00
2023-03-04T18:29:08.713Z,0.00
2023-03-04T18:33:12.474Z,0.00
2023-03-04T18:37:17.669Z,-0.10
2023-03-04T18:41:21.182Z,0.00
2023-03-04T18:45:28.986Z,-0.10
2023-03-04T18:49:32.941Z,0.10
2023-03-04T18:53:38.111Z,0.00
2023-03-04T18:57:50.536Z,0.00
2023-03-04T19:01:58.781Z,0.00
2023-03-04T19:06:03.016Z,0.00
2023-03-04T19:10:38.929Z,-0.10
2023-03-04T19:14:44.688Z,-0.10
2023-03-04T19:24:53.079Z,-0.40
2023-03-04T19:28:58.285Z,-0.40
2023-03-04T19:33:01.875Z,-0.30
2023-03-04T19:37:06.601Z,-0.20
2023-03-04T19:41:11.618Z,-0.20
2023-03-04T19:45:18.479Z,-0.20
2023-03-04T19:49:22.167Z,-0.30
2023-03-04T19:53:29.510Z,-0.20
2023-03-04T19:57:33.704Z,-0.10
2023-03-04T20:02:03.588Z,-0.10
2023-03-04T20:06:08.873Z,-0.20
2023-03-04T20:10:14.672Z,-0.20
2023-03-04T20:14:44.406Z,-0.20
2023-03-04T20:18:49.638Z,-0.10
2023-03-04T20:22:53.148Z,-0.10
2023-03-04T20:26:57.003Z,-0.20
2023-03-04T20:31:38.477Z,-0.10
2023-03-04T20:35:43.742Z,-0.30
2023-03-04T20:39:47.895Z,-0.10
2023-03-04T20:43:51.773Z,-0.10
2023-03-04T20:47:55.473Z,-0.10
2023-03-04T20:52:06.647Z,0.00
2023-03-04T20:56:10.586Z,0.10
2023-03-04T21:00:15.276Z,0.10
2023-03-04T21:04:30.814Z,-0.10
2023-03-04T21:08:38.129Z,-0.10
2023-03-04T21:12:41.855Z,0.00
2023-03-04T21:16:45.435Z,-0.10
2023-03-04T21:21:38.622Z,0.00
2023-03-04T21:25:44.227Z,0.00
2023-03-04T21:29:49.605Z,0.10
2023-03-04T21:34:02.668Z,0.00
2023-03-04T21:38:06.266Z,0.00
2023-03-04T21:42:13.053Z,0.00
2023-03-04T21:46:58.024Z,0.20
2023-03-04T21:55:26.573Z,0.20
2023-03-04T21:59:31.742Z,0.20
2023-03-04T22:03:54.622Z,0.20
2023-03-04T22:07:58.385Z,0.30
2023-03-04T22:12:02.373Z,0.30
2023-03-04T22:16:08.490Z,0.40
2023-03-04T22:20:14.963Z,0.20
2023-03-04T22:24:18.666Z,0.20
2023-03-04T22:28:31.885Z,0.30
2023-03-04T22:32:37.042Z,0.20
2023-03-04T22:36:44.019Z,0.30
2023-03-04T22:40:49.112Z,0.20
2023-03-04T22:44:52.684Z,0.20
2023-03-04T22:49:04.944Z,0.20
2023-03-04T22:53:08.592Z,0.30
2023-03-04T22:57:12.201Z,0.30
2023-03-04T23:01:33.517Z,0.40
2023-03-04T23:05:38.715Z,0.40
2023-03-04T23:09:42.566Z,0.50
2023-03-04T23:13:46.280Z,0.40
2023-03-04T23:17:50.265Z,0.40
2023-03-04T23:21:55.289Z,0.30
2023-03-04T23:25:58.924Z,0.30
2023-03-04T23:30:06.260Z,0.20
2023-03-04T23:34:09.819Z,0.30
2023-03-04T23:38:14.953Z,0.10
2023-03-04T23:42:24.679Z,0.10
2023-03-04T23:46:29.206Z,0.00
2023-03-04T23:50:35.299Z,0.00
2023-03-04T23:54:42.662Z,0.00
2023-03-04T23:58:46.716Z,0.00
